Time;durP1;ratioP1;P1;durP2;ratioP2;P2;SDS_P1;SDS_P2;PMS_P1;PMS_P2;Temp;Humidity;BMP_temperature;BMP_pressure;BME280_temperature;BME280_humidity;BME280_pressure;Samples;Min_cycle;Max_cycle;Signal;HPM_P1;HPM_P2
2023/10/09 00:00:50;;;;;;;14.10;5.73;;;;;;;14.54;100.00;98696.25;5113769;28;20558;-73
2023/10/09 00:03:17;;;;;;;12.77;5.23;;;;;;;14.49;100.00;98690.78;5114050;28;20597;-73
2023/10/09 00:05:46;;;;;;;14.80;5.27;;;;;;;14.44;100.00;98696.00;5112625;28;20234;-73
2023/10/09 00:08:19;;;;;;;13.37;5.33;;;;;;;14.50;100.00;98694.25;5113552;28;20759;-73
2023/10/09 00:10:53;;;;;;;16.07;5.43;;;;;;;14.40;100.00;98697.50;5113934;28;20187;-73
2023/10/09 00:13:27;;;;;;;19.10;5.50;;;;;;;14.35;100.00;98697.38;5113962;28;20187;-73
2023/10/09 00:15:59;;;;;;;15.03;5.03;;;;;;;14.41;100.00;98699.13;5107785;28;20230;-73
2023/10/09 00:18:29;;;;;;;17.33;5.40;;;;;;;14.32;100.00;98697.81;5107706;28;20255;-73
2023/10/09 00:21:00;;;;;;;12.73;5.17;;;;;;;14.42;100.00;98699.94;5113565;28;20721;-73
2023/10/09 00:23:31;;;;;;;17.30;5.37;;;;;;;14.38;100.00;98698.75;5113851;28;20184;-73
2023/10/09 00:26:08;;;;;;;13.07;5.33;;;;;;;14.33;100.00;98704.78;5113748;28;20222;-73
2023/10/09 00:28:37;;;;;;;13.40;5.53;;;;;;;14.24;100.00;98694.66;5113572;28;20237;-73
2023/10/09 00:31:08;;;;;;;14.23;5.53;;;;;;;14.19;100.00;98687.25;5113643;28;20234;-73
2023/10/09 00:33:39;;;;;;;14.00;5.57;;;;;;;14.19;100.00;98687.25;5113727;28;20187;-73
2023/10/09 00:36:10;;;;;;;9.97;5.33;;;;;;;14.20;100.00;98688.91;5113651;28;20207;-73
2023/10/09 00:38:44;;;;;;;13.20;5.80;;;;;;;14.15;100.00;98686.06;5113160;28;20234;-73
2023/10/09 00:41:11;;;;;;;15.13;5.60;;;;;;;14.18;100.00;98682.94;5113386;28;20183;-73
2023/10/09 00:43:43;;;;;;;10.80;5.63;;;;;;;14.23;100.00;98677.78;5113642;28;20588;-73
2023/10/09 00:46:23;;;;;;;14.40;5.60;;;;;;;14.21;100.00;98669.16;5113645;28;20191;-73
2023/10/09 00:48:53;;;;;;;10.37;5.93;;;;;;;14.27;100.00;98672.78;5113090;28;20231;-73
2023/10/09 00:51:21;;;;;;;10.27;5.90;;;;;;;14.31;100.00;98674.78;5113200;28;20659;-73
2023/10/09 00:53:58;;;;;;;9.23;5.60;;;;;;;14.23;100.00;98664.41;5113442;28;20214;-73
2023/10/09 00:56:38;;;;;;;12.80;6.13;;;;;;;14.19;100.00;98660.50;5113502;28;20183;-73
2023/10/09 00:59:08;;;;;;;11.50;5.57;;;;;;;14.18;100.00;98661.56;5115283;28;20609;-73
2023/10/09 01:01:37;;;;;;;11.03;5.63;;;;;;;14.32;100.00;98662.22;5117180;28;20247;-73
2023/10/09 01:04:06;;;;;;;12.37;5.53;;;;;;;14.30;100.00;98665.09;5117107;28;20213;-73
2023/10/09 01:06:42;;;;;;;12.57;5.90;;;;;;;14.23;100.00;98660.91;5116510;28;20214;-73
2023/10/09 01:09:10;;;;;;;9.83;5.57;;;;;;;14.27;100.00;98656.72;5116549;28;20580;-74
2023/10/09 01:11:48;;;;;;;11.33;5.83;;;;;;;14.30;100.00;98654.41;5116939;28;20209;-74
2023/10/09 01:14:15;;;;;;;12.37;5.87;;;;;;;14.34;100.00;98654.78;5116578;28;20548;-74
2023/10/09 01:16:43;;;;;;;12.70;6.27;;;;;;;14.34;100.00;98652.91;5116876;28;20256;-74
2023/10/09 01:19:19;;;;;;;13.80;5.93;;;;;;;14.33;100.00;98656.63;5116693;28;20223;-74
2023/10/09 01:21:46;;;;;;;13.87;5.60;;;;;;;14.29;100.00;98644.75;5117209;28;20196;-74
2023/10/09 01:24:13;;;;;;;12.50;5.53;;;;;;;14.34;100.00;98658.25;5116671;28;20199;-74
2023/10/09 01:26:44;;;;;;;13.30;5.87;;;;;;;14.40;100.00;98654.69;5116274;28;20213;-74
2023/10/09 01:29:16;;;;;;;16.60;5.63;;;;;;;14.48;100.00;98646.31;5116570;28;20230;-74
2023/10/09 01:31:50;;;;;;;9.53;5.30;;;;;;;14.45;100.00;98651.31;5116668;28;20184;-74
2023/10/09 01:34:17;;;;;;;11.30;5.60;;;;;;;14.42;100.00;98644.56;5116642;28;20222;-74
2023/10/09 01:36:44;;;;;;;10.60;5.73;;;;;;;14.40;100.00;98641.31;5116478;28;20286;-74
2023/10/09 01:39:22;;;;;;;16.30;5.33;;;;;;;14.36;100.00;98640.13;5116358;28;20226;-74
2023/10/09 01:41:51;;;;;;;10.77;5.20;;;;;;;14.45;100.00;98637.94;5116429;28;20192;-74
2023/10/09 01:44:18;;;;;;;14.10;5.43;;;;;;;14.42;100.00;98641.09;5116023;28;20662;-74
2023/10/09 01:46:45;;;;;;;16.80;5.83;;;;;;;14.33;100.00;98632.56;5116064;28;20316;-74
2023/10/09 01:49:21;;;;;;;12.63;5.40;;;;;;;14.37;100.00;98639.09;5116128;28;20235;-74
2023/10/09 01:51:48;;;;;;;15.13;5.37;;;;;;;14.37;100.00;98630.22;5116266;28;20187;-74
2023/10/09 01:54:16;;;;;;;12.37;5.17;;;;;;;14.29;100.00;98623.34;5115882;28;20205;-74
2023/10/09 01:56:46;;;;;;;11.80;5.70;;;;;;;14.29;100.00;98623.34;5116063;28;20215;-74
2023/10/09 01:59:13;;;;;;;12.40;5.03;;;;;;;14.34;100.00;98620.81;5116052;28;20223;-74
2023/10/09 02:01:47;;;;;;;11.10;5.53;;;;;;;14.42;100.00;98623.16;5115963;28;20283;-74
2023/10/09 02:04:14;;;;;;;13.10;5.50;;;;;;;14.45;100.00;98614.69;5115987;28;20223;-74
2023/10/09 02:06:40;;;;;;;9.23;5.43;;;;;;;14.42;100.00;98612.47;5116481;28;20204;-74
2023/10/09 02:09:07;;;;;;;11.07;5.77;;;;;;;14.44;100.00;98614.91;5115372;28;20231;-74
2023/10/09 02:11:39;;;;;;;10.47;5.43;;;;;;;14.56;100.00;98613.88;5115551;28;20215;-74
2023/10/09 02:14:18;;;;;;;17.73;6.07;;;;;;;14.46;100.00;98613.63;5115853;28;20190;-74
2023/10/09 02:17:02;;;;;;;12.33;5.60;;;;;;;14.46;100.00;98604.78;5115819;28;20188;-74
2023/10/09 02:19:31;;;;;;;11.07;5.43;;;;;;;14.46;100.00;98602.94;5115363;28;20219;-74
2023/10/09 02:22:02;;;;;;;14.70;5.70;;;;;;;14.46;100.00;98610.97;5115645;28;20282;-74
2023/10/09 02:24:41;;;;;;;12.90;5.30;;;;;;;14.49;100.00;98607.00;5115279;28;20203;-74
2023/10/09 02:27:08;;;;;;;12.07;5.27;;;;;;;14.49;100.00;98605.16;5115186;28;20195;-74
2023/10/09 02:29:38;;;;;;;12.97;5.23;;;;;;;14.49;100.00;98598.97;5115065;28;20223;-74
2023/10/09 02:32:14;;;;;;;10.90;5.07;;;;;;;14.47;100.00;98604.56;5115457;28;20187;-74
2023/10/09 02:34:41;;;;;;;14.00;5.33;;;;;;;14.51;100.00;98607.63;5115433;28;20189;-74
2023/10/09 02:37:12;;;;;;;16.43;6.47;;;;;;;14.56;100.00;98613.88;5115115;28;20271;-74
2023/10/09 02:39:43;;;;;;;12.17;5.30;;;;;;;14.59;100.00;98618.78;5115294;28;20190;-74
2023/10/09 02:42:23;;;;;;;14.17;5.30;;;;;;;14.53;100.00;98609.00;5114963;28;20604;-74
2023/10/09 02:44:51;;;;;;;16.97;5.77;;;;;;;14.66;100.00;98607.97;5115228;28;20197;-74
2023/10/09 02:47:24;;;;;;;16.70;5.90;;;;;;;14.64;100.00;98616.22;5115104;28;20209;-74
2023/10/09 02:50:00;;;;;;;19.63;5.90;;;;;;;14.59;100.00;98610.75;5115059;28;20214;-74
2023/10/09 02:52:33;;;;;;;12.43;5.10;;;;;;;14.56;100.00;98605.84;5115064;28;20184;-73
2023/10/09 02:55:00;;;;;;;13.60;5.33;;;;;;;14.55;100.00;98601.56;5115098;28;20191;-73
2023/10/09 02:57:36;;;;;;;14.97;5.30;;;;;;;14.52;100.00;98607.34;5114796;28;20280;-73
2023/10/09 03:00:18;;;;;;;11.63;5.23;;;;;;;14.43;100.00;98605.25;5114873;27;20194;-73
2023/10/09 03:02:46;;;;;;;14.37;5.90;;;;;;;14.40;100.00;98601.19;5114853;28;20191;-73
2023/10/09 03:05:13;;;;;;;14.90;5.17;;;;;;;14.44;100.00;98596.19;5114773;28;20293;-73
2023/10/09 03:07:42;;;;;;;11.40;5.67;;;;;;;14.43;100.00;98587.34;5114325;28;20800;-73
2023/10/09 03:10:09;;;;;;;14.27;5.63;;;;;;;14.43;100.00;98584.66;5114690;27;20231;-73
2023/10/09 03:12:36;;;;;;;13.73;5.37;;;;;;;14.40;100.00;98582.47;5114700;28;20207;-73
2023/10/09 03:15:05;;;;;;;18.33;5.90;;;;;;;14.40;100.00;98590.50;5114612;28;20207;-73
2023/10/09 03:17:34;;;;;;;13.47;5.47;;;;;;;14.45;100.00;98582.59;5114541;28;20223;-73
2023/10/09 03:20:03;;;;;;;12.97;5.40;;;;;;;14.42;100.00;98579.56;5114389;28;20268;-73
2023/10/09 03:22:30;;;;;;;11.53;5.77;;;;;;;14.44;100.00;98575.63;5113437;28;20256;-73
2023/10/09 03:24:57;;;;;;;13.50;5.43;;;;;;;14.44;100.00;98580.13;5114309;28;20207;-73
2023/10/09 03:27:23;;;;;;;16.47;5.70;;;;;;;14.47;100.00;98575.13;5114344;28;20235;-73
2023/10/09 03:29:53;;;;;;;14.30;5.60;;;;;;;14.49;100.00;98578.41;5114117;28;20223;-73
2023/10/09 03:32:19;;;;;;;15.60;5.80;;;;;;;14.56;100.00;98575.63;5114237;28;20207;-74
2023/10/09 03:34:46;;;;;;;15.63;5.93;;;;;;;14.50;100.00;98569.31;5114071;28;20203;-74
2023/10/09 03:37:21;;;;;;;14.17;5.43;;;;;;;14.53;100.00;98573.41;5113808;28;20583;-74
2023/10/09 03:39:51;;;;;;;14.27;5.10;;;;;;;14.51;100.00;98568.28;5113764;28;20274;-74
2023/10/09 03:42:19;;;;;;;15.67;5.27;;;;;;;14.54;100.00;98575.03;5113983;28;20304;-74
2023/10/09 03:44:52;;;;;;;15.67;5.87;;;;;;;14.52;100.00;98575.25;5113807;28;20203;-74
2023/10/09 03:47:22;;;;;;;11.67;5.43;;;;;;;14.55;100.00;98572.13;5113509;28;20191;-74
2023/10/09 03:49:51;;;;;;;14.27;5.97;;;;;;;14.49;100.00;98570.38;5113572;28;20262;-74
2023/10/09 03:52:19;;;;;;;11.87;5.80;;;;;;;14.52;100.00;98574.44;5113940;28;20203;-74
2023/10/09 03:54:46;;;;;;;14.97;5.43;;;;;;;14.55;100.00;98576.66;5113598;28;20200;-74
2023/10/09 03:57:18;;;;;;;11.27;5.30;;;;;;;14.53;100.00;98576.06;5114032;28;20198;-74
2023/10/09 03:59:46;;;;;;;14.40;5.50;;;;;;;14.49;100.00;98562.34;5114007;28;20184;-74
2023/10/09 04:02:14;;;;;;;15.73;5.47;;;;;;;14.49;100.00;98569.56;5113860;28;20246;-74
2023/10/09 04:04:45;;;;;;;14.70;5.33;;;;;;;14.46;100.00;98562.81;5113499;28;20207;-73
2023/10/09 04:07:11;;;;;;;13.80;5.50;;;;;;;14.42;100.00;98574.22;5113751;28;20187;-73
2023/10/09 04:09:44;;;;;;;12.70;5.47;;;;;;;14.40;100.00;98570.94;5113276;28;20694;-73
2023/10/09 04:12:20;;;;;;;12.80;6.20;;;;;;;14.36;100.00;98573.25;5113626;28;20187;-73
2023/10/09 04:14:54;;;;;;;16.90;6.13;;;;;;;14.38;100.00;98573.84;5113390;28;20278;-73
2023/10/09 04:17:33;;;;;;;13.87;5.80;;;;;;;14.42;100.00;98568.88;5113341;28;20236;-73
2023/10/09 04:20:47;;;;;;;18.00;6.47;;;;;;;14.29;100.00;98572.53;5113715;28;20244;-73
2023/10/09 04:23:08;;;;;;;16.77;5.77;;;;;;;14.31;100.00;98577.66;5113131;28;20223;-73
2023/10/09 04:25:45;;;;;;;14.90;5.93;;;;;;;14.30;100.00;98565.34;5113320;28;20199;-73
2023/10/09 04:28:18;;;;;;;15.73;6.47;;;;;;;14.30;100.00;98570.69;5113400;28;20724;-73
2023/10/09 04:30:53;;;;;;;14.07;6.30;;;;;;;14.26;100.00;98575.69;5113551;28;20218;-73
2023/10/09 04:33:40;;;;;;;13.00;6.17;;;;;;;14.26;100.00;98580.22;5116356;28;20191;-73
2023/10/09 04:36:22;;;;;;;12.93;6.23;;;;;;;14.23;100.00;98568.13;5117551;28;20229;-73
2023/10/09 04:41:51;;;;;;;13.03;6.17;;;;;;;14.25;100.00;98584.75;5117160;28;20580;-73
2023/10/09 04:44:18;;;;;;;14.77;6.10;;;;;;;14.24;100.00;98574.28;5116142;28;20211;-73
2023/10/09 04:49:34;;;;;;;14.73;6.40;;;;;;;14.14;100.00;98569.47;5116475;28;20223;-73
2023/10/09 04:52:06;;;;;;;15.47;6.73;;;;;;;14.16;100.00;98574.59;5116944;28;20657;-73
2023/10/09 04:55:02;;;;;;;15.90;6.60;;;;;;;14.18;100.00;98570.63;5117080;28;20191;-73
2023/10/09 04:57:26;;;;;;;19.20;6.90;;;;;;;14.18;100.00;98573.31;5116602;28;20276;-74
2023/10/09 04:59:53;;;;;;;15.37;6.30;;;;;;;14.17;100.00;98563.66;5116878;28;20203;-74
2023/10/09 05:02:20;;;;;;;15.93;6.50;;;;;;;14.19;100.00;98568.75;5116700;28;20226;-74
2023/10/09 05:05:47;;;;;;;16.30;6.73;;;;;;;14.20;100.00;98565.06;5116411;28;20691;-74
2023/10/09 05:10:17;;;;;;;15.47;6.80;;;;;;;14.16;100.00;98580.72;5115916;28;20580;-74
2023/10/09 05:12:47;;;;;;;15.70;6.50;;;;;;;14.20;100.00;98576.59;5116632;28;20207;-74
2023/10/09 05:15:17;;;;;;;12.93;5.97;;;;;;;14.22;100.00;98574.53;5116154;28;20206;-74
2023/10/09 05:17:51;;;;;;;10.83;6.23;;;;;;;14.26;100.00;98585.56;5115733;28;20227;-74
2023/10/09 05:23:23;;;;;;;18.33;6.40;;;;;;;14.19;100.00;98574.09;5115848;28;20204;-74
2023/10/09 05:25:58;;;;;;;14.50;6.33;;;;;;;14.16;100.00;98586.06;5116463;28;20300;-74
2023/10/09 05:28:48;;;;;;;14.27;6.30;;;;;;;14.14;100.00;98577.47;5116108;28;20586;-74
2023/10/09 05:31:44;;;;;;;15.40;6.33;;;;;;;14.12;100.00;98584.94;5116005;28;20260;-74
2023/10/09 05:34:02;;;;;;;14.23;6.10;;;;;;;14.11;100.00;98587.84;5115535;28;20198;-74
2023/10/09 05:36:33;;;;;;;19.37;6.90;;;;;;;14.09;100.00;98590.72;5115755;28;20210;-74
2023/10/09 05:47:35;;;;;;;13.93;6.67;;;;;;;14.08;100.00;98582.94;5115800;28;20212;-74
2023/10/09 05:53:09;;;;;;;17.10;6.97;;;;;;;14.08;100.00;98588.28;5108317;28;20553;-74
2023/10/09 06:02:17;;;;;;;17.57;6.97;;;;;;;14.17;100.00;98590.41;5115427;28;20695;-74
2023/10/09 06:04:04;;;;;;;15.70;5.73;;;;;;;14.23;100.00;98600.22;5116020;28;20211;-74
2023/10/09 06:06:33;;;;;;;19.77;6.60;;;;;;;14.30;100.00;98584.06;5115360;28;20211;-74
2023/10/09 06:11:49;;;;;;;19.03;6.63;;;;;;;14.44;100.00;98589.00;5115135;28;20198;-74
2023/10/09 06:14:25;;;;;;;18.43;5.80;;;;;;;14.48;100.00;98600.84;5114881;28;20678;-74
2023/10/09 06:17:22;;;;;;;15.00;5.90;;;;;;;14.56;100.00;98597.03;5114831;28;20235;-74
2023/10/09 06:19:48;;;;;;;16.07;6.17;;;;;;;14.59;100.00;98604.56;5114888;28;20260;-74
2023/10/09 06:22:56;;;;;;;16.10;6.03;;;;;;;14.58;100.00;98601.09;5115135;28;20207;-74
2023/10/09 06:25:17;;;;;;;15.43;6.13;;;;;;;14.61;100.00;98605.97;5114643;28;20248;-74
2023/10/09 06:27:59;;;;;;;15.87;5.97;;;;;;;14.64;100.00;98600.16;5114595;28;20227;-74
2023/10/09 06:30:27;;;;;;;13.83;6.07;;;;;;;14.66;100.00;98616.78;5114513;28;20239;-74
2023/10/09 06:33:04;;;;;;;18.20;6.17;;;;;;;14.58;100.00;98614.47;5115152;28;20204;-74
2023/10/09 06:35:35;;;;;;;14.23;6.03;;;;;;;14.66;100.00;98608.75;5114330;28;20630;-74
2023/10/09 06:38:21;;;;;;;14.37;5.80;;;;;;;14.67;100.00;98613.09;5113969;27;20318;-74
2023/10/09 06:43:42;;;;;;;14.30;5.83;;;;;;;14.70;100.00;98615.28;5093774;28;20682;-74
2023/10/09 06:46:43;;;;;;;14.80;5.57;;;;;;;14.74;100.00;98621.81;5114690;28;20195;-74
2023/10/09 06:51:55;;;;;;;15.90;5.77;;;;;;;14.88;100.00;98623.22;5113998;28;20282;-74
2023/10/09 06:54:25;;;;;;;17.53;6.37;;;;;;;14.91;100.00;98620.09;5114859;28;20237;-74
2023/10/09 07:02:27;;;;;;;18.00;6.10;;;;;;;14.91;100.00;98620.09;5114085;28;20550;-74
2023/10/09 07:04:55;;;;;;;19.23;6.50;;;;;;;14.94;100.00;98614.28;5113950;28;20638;-74
2023/10/09 07:07:24;;;;;;;14.63;5.97;;;;;;;14.95;100.00;98623.94;5114246;28;20199;-74
2023/10/09 07:12:33;;;;;;;17.70;6.90;;;;;;;15.14;100.00;98616.56;5114072;28;20255;-74
2023/10/09 07:16:23;;;;;;;15.57;5.90;;;;;;;15.22;100.00;98624.25;5113882;28;20207;-74
2023/10/09 07:17:52;;;;;;;15.03;6.00;;;;;;;15.25;100.00;98621.13;5113819;28;20328;-74
2023/10/09 07:23:13;;;;;;;15.20;5.57;;;;;;;15.40;100.00;98616.94;5113913;28;20202;-74
2023/10/09 07:25:54;;;;;;;15.30;6.00;;;;;;;15.45;100.00;98614.38;5113969;28;20195;-74
2023/10/09 07:28:42;;;;;;;17.80;6.50;;;;;;;15.52;100.00;98627.63;5113930;28;20227;-74
2023/10/09 07:31:23;;;;;;;18.30;6.27;;;;;;;15.53;100.00;98622.03;5113869;28;20239;-74
2023/10/09 07:33:57;;;;;;;14.87;6.10;;;;;;;15.54;100.00;98629.03;5113660;28;20191;-74
2023/10/09 07:36:37;;;;;;;15.50;6.10;;;;;;;15.57;100.00;98627.75;5114051;28;20244;-74
2023/10/09 07:39:13;;;;;;;20.50;6.10;;;;;;;15.64;100.00;98625.72;5113532;28;20375;-74
2023/10/09 07:41:45;;;;;;;14.57;5.80;;;;;;;15.64;100.00;98623.88;5113994;28;20229;-74
2023/10/09 07:44:34;;;;;;;16.53;5.63;;;;;;;15.67;100.00;98634.13;5114321;28;20187;-74
2023/10/09 07:47:14;;;;;;;16.50;5.77;;;;;;;15.72;100.00;98633.41;5114359;28;20187;-74
2023/10/09 07:49:42;;;;;;;15.17;5.93;;;;;;;15.82;100.00;98630.91;5113877;28;20188;-74
2023/10/09 07:52:08;;;;;;;19.17;5.90;;;;;;;15.87;100.00;98626.47;5113447;28;20662;-74
2023/10/09 07:54:36;;;;;;;12.13;5.33;;;;;;;15.91;100.00;98634.84;5113283;28;20566;-74
2023/10/09 07:57:15;;;;;;;14.97;6.30;;;;;;;16.01;100.00;98629.72;5113773;28;20218;-73
2023/10/09 07:59:49;;;;;;;16.90;6.43;;;;;;;16.07;100.00;98624.19;5113598;28;20194;-74
2023/10/09 08:02:16;;;;;;;22.10;5.50;;;;;;;16.11;97.06;98630.69;5113635;28;20192;-74
2023/10/09 08:04:49;;;;;;;13.63;5.33;;;;;;;16.20;98.03;98634.59;5113356;28;20294;-75
2023/10/09 08:07:25;;;;;;;17.80;5.90;;;;;;;16.27;98.30;98637.97;5114440;28;20558;-74
2023/10/09 08:12:57;;;;;;;24.57;6.53;;;;;;;16.38;100.00;98641.66;5117565;28;20202;-74
2023/10/09 08:15:34;;;;;;;21.33;5.87;;;;;;;16.40;100.00;98640.41;5118105;28;20191;-74
2023/10/09 08:18:03;;;;;;;15.80;5.20;;;;;;;16.55;96.56;98643.31;5117669;28;20241;-74
2023/10/09 08:20:50;;;;;;;18.57;5.70;;;;;;;16.61;93.20;98642.34;5117781;28;20276;-74
2023/10/09 08:23:28;;;;;;;14.53;5.63;;;;;;;16.68;92.32;98651.06;5117564;28;20191;-74
2023/10/09 08:26:12;;;;;;;14.23;5.70;;;;;;;16.75;92.56;98646.38;5117298;28;20191;-74
2023/10/09 08:28:42;;;;;;;16.67;5.43;;;;;;;16.81;91.41;98641.88;5117337;28;20307;-74
2023/10/09 08:33:57;;;;;;;16.37;6.00;;;;;;;16.92;90.67;98651.75;5117318;28;20336;-74
2023/10/09 08:36:28;;;;;;;16.70;5.50;;;;;;;17.00;90.58;98633.31;5117624;28;20293;-74
2023/10/09 08:38:58;;;;;;;16.40;6.00;;;;;;;17.10;90.30;98644.22;5117094;28;20304;-74
2023/10/09 08:41:25;;;;;;;16.77;5.57;;;;;;;17.09;92.07;98645.28;5117342;27;20203;-74
2023/10/09 08:43:55;;;;;;;14.93;5.43;;;;;;;17.14;90.09;98641.88;5117129;28;20287;-74
2023/10/09 08:46:28;;;;;;;18.37;6.47;;;;;;;17.19;89.82;98645.44;5117338;28;20614;-74
2023/10/09 08:48:57;;;;;;;16.60;5.77;;;;;;;17.22;89.41;98642.25;5117231;28;20230;-74
2023/10/09 08:51:25;;;;;;;15.13;6.27;;;;;;;17.22;88.48;98644.94;5117011;28;20219;-74
2023/10/09 08:53:52;;;;;;;21.10;5.90;;;;;;;17.28;89.73;98638.56;5117258;28;20203;-74
2023/10/09 08:56:22;;;;;;;18.03;5.60;;;;;;;17.33;89.71;98648.59;5116881;28;20227;-74
2023/10/09 08:59:01;;;;;;;19.67;6.17;;;;;;;17.43;87.49;98646.91;5116628;28;20219;-74
2023/10/09 09:01:31;;;;;;;18.97;6.20;;;;;;;17.51;87.06;98649.13;5116711;28;20184;-74
2023/10/09 09:03:59;;;;;;;15.00;5.70;;;;;;;17.51;89.44;98651.81;5116345;28;20294;-74
2023/10/09 09:06:26;;;;;;;18.93;6.40;;;;;;;17.58;87.63;98652.47;5117309;28;20210;-74
2023/10/09 09:08:59;;;;;;;19.20;6.57;;;;;;;17.63;86.74;98649.84;5117574;28;20673;-73
2023/10/09 09:11:30;;;;;;;18.03;5.50;;;;;;;17.68;88.12;98651.78;5116254;28;20686;-73
2023/10/09 09:14:03;;;;;;;19.33;6.93;;;;;;;17.76;86.09;98654.84;5116535;28;20751;-72
2023/10/09 09:16:30;;;;;;;13.67;6.03;;;;;;;17.81;85.48;98665.69;5117235;28;20211;-72
2023/10/09 09:19:04;;;;;;;22.07;6.77;;;;;;;17.88;86.48;98666.31;5116388;28;20227;-75
2023/10/09 09:21:38;;;;;;;19.20;6.63;;;;;;;17.95;83.62;98677.69;5116931;28;20260;-74
2023/10/09 09:24:15;;;;;;;22.63;6.47;;;;;;;18.15;82.15;98680.59;5116762;28;20190;-73
2023/10/09 09:26:45;;;;;;;18.07;6.33;;;;;;;18.24;82.55;98686.38;5116654;27;20191;-73
2023/10/09 09:29:17;;;;;;;19.63;5.70;;;;;;;18.27;81.80;98686.66;5116628;28;20223;-72
2023/10/09 09:32:06;;;;;;;18.50;6.07;;;;;;;18.36;81.02;98684.34;5116195;28;20207;-72
2023/10/09 09:34:45;;;;;;;11.93;5.53;;;;;;;18.52;80.72;98684.28;5116171;28;20635;-72
2023/10/09 09:37:13;;;;;;;21.70;6.60;;;;;;;18.56;81.90;98685.41;5116079;28;20210;-72
2023/10/09 09:39:43;;;;;;;20.03;6.63;;;;;;;18.57;81.11;98676.25;5116523;28;20198;-73
2023/10/09 09:42:13;;;;;;;22.90;6.67;;;;;;;18.65;82.00;98683.06;5115414;28;20202;-73
2023/10/09 09:44:44;;;;;;;18.43;6.73;;;;;;;18.74;82.32;98684.22;5116305;28;20275;-73
2023/10/09 09:47:23;;;;;;;23.70;6.40;;;;;;;18.73;84.61;98683.41;5116078;28;20196;-73
2023/10/09 09:49:52;;;;;;;19.43;6.10;;;;;;;18.84;85.72;98682.44;5115919;28;20188;-73
2023/10/09 09:52:19;;;;;;;19.77;7.53;;;;;;;18.89;85.00;98679.78;5115718;28;20698;-73
2023/10/09 09:54:45;;;;;;;18.23;6.77;;;;;;;18.98;83.58;98675.53;5115985;28;20285;-73
2023/10/09 09:57:25;;;;;;;19.53;7.67;;;;;;;19.05;84.88;98672.63;5115588;28;20203;-73
2023/10/09 09:59:55;;;;;;;15.53;6.63;;;;;;;19.13;83.39;98681.03;5116055;28;20240;-73
2023/10/09 10:02:28;;;;;;;22.70;6.50;;;;;;;19.23;82.50;98678.44;5115887;28;20213;-73
2023/10/09 10:04:59;;;;;;;15.90;5.77;;;;;;;19.27;81.69;98679.56;5115536;28;20238;-73
2023/10/09 10:07:30;;;;;;;18.30;5.93;;;;;;;19.35;81.34;98679.06;5115341;28;20227;-72
2023/10/09 10:09:57;;;;;;;18.53;6.03;;;;;;;19.33;82.54;98666.94;5115674;28;20196;-73
2023/10/09 10:12:46;;;;;;;19.40;7.13;;;;;;;19.39;83.80;98671.28;5115411;28;20238;-74
2023/10/09 10:15:15;;;;;;;21.27;6.80;;;;;;;19.45;83.25;98667.56;5114898;28;20248;-73
2023/10/09 10:18:03;;;;;;;22.10;8.10;;;;;;;19.46;81.96;98669.97;5115301;28;20272;-73
2023/10/09 10:20:31;;;;;;;23.60;6.73;;;;;;;19.58;84.90;98673.28;5114992;28;20231;-73
2023/10/09 10:23:20;;;;;;;19.37;6.43;;;;;;;19.67;84.50;98671.72;5115393;28;20227;-73
2023/10/09 10:25:50;;;;;;;22.00;6.70;;;;;;;19.83;76.88;98669.91;5115576;27;20279;-73
2023/10/09 10:28:35;;;;;;;18.73;6.73;;;;;;;19.92;74.84;98671.03;5115063;28;20223;-73
2023/10/09 10:31:04;;;;;;;22.60;7.63;;;;;;;19.96;76.12;98668.59;5115552;28;20223;-73
2023/10/09 10:33:55;;;;;;;20.90;6.87;;;;;;;20.00;75.46;98664.28;5114813;28;20203;-73
2023/10/09 10:36:23;;;;;;;20.10;6.27;;;;;;;19.96;71.62;98668.59;5114985;28;20620;-73
2023/10/09 10:39:21;;;;;;;18.63;5.87;;;;;;;19.96;73.12;98657.81;5114866;28;20647;-73
2023/10/09 10:41:59;;;;;;;14.53;5.40;;;;;;;20.00;74.53;98659.72;5114619;28;20203;-73
2023/10/09 10:44:37;;;;;;;18.17;6.87;;;;;;;20.00;75.77;98661.59;5114948;28;20221;-73
2023/10/09 10:47:24;;;;;;;20.13;6.40;;;;;;;20.01;76.13;98655.13;5114437;28;20758;-73
2023/10/09 10:49:58;;;;;;;17.77;6.40;;;;;;;20.12;76.14;98656.81;5115271;28;20195;-73
2023/10/09 10:52:41;;;;;;;18.40;6.80;;;;;;;20.18;76.24;98658.44;5114768;27;20260;-73
2023/10/09 10:55:18;;;;;;;21.43;6.10;;;;;;;20.12;75.88;98663.00;5114294;28;20274;-73
2023/10/09 10:58:00;;;;;;;22.60;6.30;;;;;;;20.11;75.57;98666.81;5114586;28;20229;-73
2023/10/09 11:03:29;;;;;;;14.97;5.80;;;;;;;20.15;80.24;98654.41;5114318;28;20541;-73
2023/10/09 11:05:56;;;;;;;23.27;9.70;;;;;;;20.22;78.43;98651.44;5114220;28;20199;-73
2023/10/09 11:08:32;;;;;;;18.63;5.77;;;;;;;20.19;78.51;98662.78;5114188;28;20227;-76
2023/10/09 11:11:16;;;;;;;20.60;6.50;;;;;;;20.21;76.56;98657.94;5114230;28;20622;-74
2023/10/09 11:13:57;;;;;;;17.63;6.80;;;;;;;20.41;78.98;98655.25;5114126;28;20304;-74
2023/10/09 11:16:41;;;;;;;20.70;8.50;;;;;;;20.55;79.33;98662.59;5113780;28;20694;-74
2023/10/09 11:19:22;;;;;;;20.03;6.37;;;;;;;20.88;78.60;98672.06;5114241;28;20310;-74
2023/10/09 11:21:58;;;;;;;16.17;5.83;;;;;;;21.19;66.21;98668.31;5115242;28;20187;-74
2023/10/09 11:24:25;;;;;;;22.83;5.80;;;;;;;21.38;56.23;98669.38;5114895;28;20183;-74
2023/10/09 11:26:56;;;;;;;16.80;5.70;;;;;;;21.73;53.94;98658.50;5113857;28;20670;-74
2023/10/09 11:29:52;;;;;;;15.00;5.80;;;;;;;21.72;53.50;98657.69;5114191;28;20227;-74
2023/10/09 11:32:24;;;;;;;11.43;4.83;;;;;;;21.73;50.72;98651.19;5113880;28;20211;-74
2023/10/09 11:34:54;;;;;;;12.37;4.83;;;;;;;21.89;43.38;98644.63;5113764;28;20204;-74
2023/10/09 11:37:38;;;;;;;9.67;4.30;;;;;;;21.99;42.41;98649.19;5113603;28;20572;-74
2023/10/09 11:40:21;;;;;;;11.53;5.53;;;;;;;21.92;42.85;98640.53;5113547;28;20195;-74
2023/10/09 11:42:50;;;;;;;13.30;6.17;;;;;;;21.83;53.94;98637.63;5112877;28;20645;-74
2023/10/09 11:45:24;;;;;;;21.43;9.00;;;;;;;21.56;58.02;98637.13;5113688;28;20207;-74
2023/10/09 11:47:58;;;;;;;21.08;7.38;;;;;;;21.44;60.76;98625.00;5113461;28;20222;-74
2023/10/09 11:50:42;;;;;;;15.18;7.18;;;;;;;21.24;63.76;98631.25;5113783;28;20197;-74
2023/10/09 11:53:17;;;;;;;26.63;10.48;;;;;;;21.13;67.75;98626.97;5113795;28;20207;-74
2023/10/09 11:55:48;;;;;;;28.70;9.70;;;;;;;21.02;69.80;98635.34;5114240;28;20533;-74
2023/10/09 11:58:22;;;;;;;40.42;25.67;;;;;;;20.99;70.84;98631.31;5113652;28;20223;-74
2023/10/09 12:00:51;;;;;;;27.80;14.20;;;;;;;20.87;72.59;98624.50;5113931;28;20215;-74
2023/10/09 12:03:17;;;;;;;24.00;9.20;;;;;;;20.86;75.53;98623.72;5113624;28;20202;-74
2023/10/09 12:05:44;;;;;;;29.93;13.33;;;;;;;20.89;73.47;98620.44;5114004;28;20213;-74
2023/10/09 12:08:15;;;;;;;30.47;8.73;;;;;;;20.94;73.67;98606.94;5113513;28;20279;-74
2023/10/09 12:10:42;;;;;;;21.57;8.10;;;;;;;20.89;73.01;98604.22;5112636;28;20199;-74
2023/10/09 12:13:08;;;;;;;44.90;25.20;;;;;;;20.95;73.54;98599.66;5113631;28;20232;-74
2023/10/09 12:15:38;;;;;;;27.43;9.00;;;;;;;21.05;77.53;98600.47;5113795;28;20199;-74
2023/10/09 12:18:14;;;;;;;20.73;8.15;;;;;;;21.08;71.65;98601.81;5113337;28;20582;-74
2023/10/09 12:20:49;;;;;;;24.93;10.63;;;;;;;21.39;74.58;98598.75;5113716;28;20194;-74
2023/10/09 12:23:16;;;;;;;20.13;8.80;;;;;;;21.44;71.69;98595.25;5113114;28;20202;-74
2023/10/09 12:25:44;;;;;;;21.37;10.00;;;;;;;21.48;70.26;98596.31;5113212;28;20218;-74
2023/10/09 12:28:12;;;;;;;23.27;10.93;;;;;;;21.64;66.73;98592.44;5113450;28;20227;-74
2023/10/09 12:30:39;;;;;;;21.65;9.35;;;;;;;21.69;65.25;98582.47;5113681;28;20256;-74
2023/10/09 12:33:07;;;;;;;23.55;7.28;;;;;;;21.77;63.15;98572.94;5113049;28;20229;-74
2023/10/09 12:35:38;;;;;;;24.27;9.07;;;;;;;21.80;63.10;98556.16;5113217;28;20568;-74
2023/10/09 12:38:09;;;;;;;18.70;7.75;;;;;;;21.94;62.22;98555.28;5113168;28;20314;-74
2023/10/09 12:40:36;;;;;;;25.95;8.80;;;;;;;21.93;61.88;98559.03;5112950;28;20233;-74
2023/10/09 12:43:02;;;;;;;18.98;7.03;;;;;;;22.05;59.93;98564.94;5112974;28;20562;-74